createdAt,value
2018-11-29T00:02:11.683Z,83.95
2018-11-29T00:04:41.301Z,83.61
2018-11-29T00:07:10.900Z,84.03
2018-11-29T00:09:40.692Z,83.54
2018-11-29T00:12:10.281Z,83.49
2018-11-29T00:14:39.897Z,83.68
2018-11-29T00:17:09.533Z,83.54
2018-11-29T00:19:39.201Z,83.18
2018-11-29T00:22:08.932Z,83.20
2018-11-29T00:24:38.545Z,83.19
2018-11-29T00:27:08.229Z,82.87
2018-11-29T00:29:37.936Z,82.68
2018-11-29T00:32:07.556Z,82.59
2018-11-29T00:34:37.183Z,82.78
2018-11-29T00:37:07.402Z,82.53
2018-11-29T00:39:36.754Z,82.52
2018-11-29T00:42:06.464Z,82.59
2018-11-29T00:44:36.057Z,82.68
2018-11-29T00:47:08.864Z,82.41
2018-11-29T00:49:38.421Z,82.65
2018-11-29T00:52:08.094Z,82.53
2018-11-29T00:54:37.681Z,82.04
2018-11-29T00:57:07.615Z,82.31
2018-11-29T00:59:37.299Z,81.81
2018-11-29T01:02:07.018Z,81.87
2018-11-29T01:04:36.572Z,81.93
2018-11-29T01:07:06.375Z,82.05
2018-11-29T01:09:36.003Z,82.19
2018-11-29T01:12:06.213Z,82.13
2018-11-29T01:14:35.821Z,81.73
2018-11-29T01:17:05.469Z,81.63
2018-11-29T01:19:35.102Z,81.61
2018-11-29T01:22:04.842Z,81.68
2018-11-29T01:24:34.493Z,81.49
2018-11-29T01:27:04.200Z,81.64
2018-11-29T01:29:33.797Z,81.23
2018-11-29T01:32:03.354Z,81.29
2018-11-29T01:34:33.038Z,81.59
2018-11-29T01:37:02.655Z,81.50
2018-11-29T01:39:32.193Z,81.45
2018-11-29T01:42:02.092Z,81.34
2018-11-29T01:44:31.695Z,81.07
2018-11-29T01:47:01.296Z,81.12
2018-11-29T01:49:30.816Z,81.03
2018-11-29T01:52:00.434Z,80.88
2018-11-29T01:54:29.976Z,80.73
2018-11-29T01:56:59.545Z,80.93
2018-11-29T01:59:29.195Z,80.52
2018-11-29T02:01:58.875Z,80.22
2018-11-29T02:04:29.595Z,80.21
2018-11-29T02:06:59.119Z,80.22
2018-11-29T02:09:28.656Z,80.35
2018-11-29T02:11:58.294Z,80.15
2018-11-29T02:14:27.931Z,80.14
2018-11-29T02:16:57.503Z,80.25
2018-11-29T02:19:27.135Z,80.13
2018-11-29T02:21:56.852Z,79.82
2018-11-29T02:24:26.395Z,80.04
2018-11-29T02:26:56.062Z,79.94
2018-11-29T02:29:25.601Z,80.19
2018-11-29T02:31:55.203Z,80.12
2018-11-29T02:34:25.435Z,80.31
2018-11-29T02:36:55.003Z,79.89
2018-11-29T02:39:24.560Z,80.00
2018-11-29T02:41:54.212Z,79.90
2018-11-29T02:44:23.811Z,80.09
2018-11-29T02:46:53.508Z,79.77
2018-11-29T02:49:23.231Z,79.76
2018-11-29T02:51:53.104Z,79.50
2018-11-29T02:54:22.675Z,79.97
2018-11-29T02:56:52.802Z,79.54
2018-11-29T02:59:22.382Z,79.46
2018-11-29T03:01:51.952Z,79.68
2018-11-29T03:04:21.573Z,79.70
2018-11-29T03:06:51.133Z,79.32
2018-11-29T03:09:20.789Z,79.59
2018-11-29T03:11:50.404Z,79.30
2018-11-29T03:14:19.984Z,79.60
2018-11-29T03:16:49.702Z,79.50
2018-11-29T03:19:19.338Z,79.73
2018-11-29T03:21:48.902Z,79.50
2018-11-29T03:24:18.448Z,79.59
2018-11-29T03:26:48.131Z,79.63
2018-11-29T03:29:17.743Z,79.60
2018-11-29T03:31:47.305Z,79.48
2018-11-29T03:34:16.943Z,79.31
2018-11-29T03:36:46.496Z,79.43
2018-11-29T03:39:16.160Z,78.86
2018-11-29T03:41:45.792Z,79.37
2018-11-29T03:44:15.358Z,79.05
2018-11-29T03:46:44.919Z,79.58
2018-11-29T03:49:14.483Z,79.17
2018-11-29T03:51:44.099Z,78.96
2018-11-29T03:54:13.724Z,79.08
2018-11-29T03:56:43.399Z,78.76
2018-11-29T03:59:12.973Z,78.88
2018-11-29T04:01:42.540Z,78.71
2018-11-29T04:04:12.220Z,78.40
2018-11-29T04:06:41.818Z,78.59
2018-11-29T04:09:11.965Z,78.44
2018-11-29T04:11:41.648Z,78.23
2018-11-29T04:14:11.256Z,77.84
2018-11-29T04:16:40.843Z,77.92
2018-11-29T04:19:10.483Z,78.14
2018-11-29T04:21:40.056Z,77.94
2018-11-29T04:24:09.646Z,77.76
2018-11-29T04:26:39.374Z,77.58
2018-11-29T04:29:08.991Z,77.74
2018-11-29T04:31:38.566Z,77.48
2018-11-29T04:34:08.272Z,77.58
2018-11-29T04:36:37.842Z,77.28
2018-11-29T04:39:08.864Z,77.42
2018-11-29T04:41:38.424Z,77.46
2018-11-29T04:44:07.985Z,77.52
2018-11-29T04:46:44.673Z,77.39
2018-11-29T04:49:14.473Z,77.53
2018-11-29T04:51:44.140Z,77.70
2018-11-29T04:54:13.792Z,77.86
2018-11-29T04:56:43.391Z,77.56
2018-11-29T04:59:13.018Z,77.63
2018-11-29T05:01:42.671Z,77.90
2018-11-29T05:04:12.325Z,77.87
2018-11-29T05:06:41.856Z,77.72
2018-11-29T05:09:11.582Z,78.03
2018-11-29T05:11:41.293Z,78.06
2018-11-29T05:14:13.964Z,78.21
2018-11-29T05:16:43.680Z,78.53
2018-11-29T05:19:13.339Z,78.39
2018-11-29T05:21:43.053Z,78.69
2018-11-29T05:24:12.698Z,78.72
2018-11-29T05:26:42.294Z,78.77
2018-11-29T05:29:12.011Z,78.31
2018-11-29T05:31:41.562Z,78.82
2018-11-29T05:34:11.329Z,78.70
2018-11-29T05:36:40.891Z,78.66
2018-11-29T05:39:13.601Z,78.94
2018-11-29T05:41:43.321Z,79.28
2018-11-29T05:44:13.415Z,79.40
2018-11-29T05:46:43.132Z,79.14
2018-11-29T05:49:12.763Z,79.39
2018-11-29T05:51:42.365Z,79.51
2018-11-29T05:54:12.061Z,79.65
2018-11-29T05:56:41.671Z,79.58
2018-11-29T05:59:11.315Z,79.76
2018-11-29T06:01:43.332Z,79.49
2018-11-29T06:04:13.203Z,79.84
2018-11-29T06:10:20.862Z,79.56
2018-11-29T06:12:50.569Z,79.82
2018-11-29T06:15:20.175Z,79.61
2018-11-29T06:17:49.992Z,79.85
2018-11-29T06:20:20.632Z,79.78
2018-11-29T06:22:50.321Z,79.76
2018-11-29T06:25:19.964Z,79.45
2018-11-29T06:27:49.632Z,79.31
2018-11-29T06:30:22.083Z,79.48
2018-11-29T06:32:52.923Z,79.32
2018-11-29T06:35:22.544Z,79.64
2018-11-29T06:37:52.152Z,78.98
2018-11-29T06:40:21.858Z,79.39
2018-11-29T06:42:51.573Z,79.14
2018-11-29T06:45:22.292Z,79.12
2018-11-29T06:47:53.089Z,79.12
2018-11-29T06:50:22.913Z,79.11
2018-11-29T06:52:53.378Z,78.81
2018-11-29T06:55:24.627Z,78.51
2018-11-29T06:57:54.898Z,78.78
2018-11-29T07:00:29.267Z,78.45
2018-11-29T07:02:58.905Z,78.49
2018-11-29T07:05:28.669Z,77.67
2018-11-29T07:07:58.429Z,76.78
2018-11-29T07:10:32.014Z,76.45
2018-11-29T07:13:02.384Z,75.79
2018-11-29T07:15:32.141Z,75.94
2018-11-29T07:18:02.456Z,75.45
2018-11-29T07:20:32.064Z,74.87
2018-11-29T07:23:01.944Z,74.17
2018-11-29T07:25:31.861Z,74.16
2018-11-29T07:28:02.092Z,73.64
2018-11-29T07:30:31.790Z,73.51
2018-11-29T07:33:01.693Z,72.89
2018-11-29T07:35:31.316Z,73.45
2018-11-29T07:38:01.144Z,72.54
2018-11-29T07:40:30.830Z,72.75
2018-11-29T07:43:00.459Z,72.41
2018-11-29T07:45:30.233Z,72.70
2018-11-29T07:48:00.248Z,71.54
2018-11-29T07:50:30.091Z,71.09
2018-11-29T07:53:00.187Z,71.24
2018-11-29T07:55:29.988Z,71.93
2018-11-29T07:58:01.387Z,71.22
2018-11-29T08:00:30.975Z,71.37
2018-11-29T08:03:01.039Z,71.08
2018-11-29T08:05:30.741Z,70.85
2018-11-29T08:08:00.702Z,71.13
2018-11-29T08:10:31.033Z,71.29
2018-11-29T08:13:00.615Z,70.92
2018-11-29T08:15:30.326Z,70.01
2018-11-29T08:17:59.971Z,70.03
2018-11-29T08:20:29.547Z,69.18
2018-11-29T08:22:59.235Z,69.75
2018-11-29T08:25:28.805Z,70.47
2018-11-29T08:27:58.452Z,69.17
2018-11-29T08:30:28.048Z,69.37
2018-11-29T08:32:57.772Z,69.24
2018-11-29T08:35:27.883Z,69.61
2018-11-29T08:37:57.480Z,68.38
2018-11-29T08:40:27.183Z,67.91
2018-11-29T08:42:56.771Z,67.68
2018-11-29T08:45:26.400Z,67.09
2018-11-29T08:47:56.007Z,66.91
2018-11-29T08:50:25.724Z,66.40
2018-11-29T08:52:55.422Z,65.63
2018-11-29T08:55:25.027Z,66.07
2018-11-29T08:57:54.654Z,65.39
2018-11-29T09:00:25.245Z,65.08
2018-11-29T09:02:54.888Z,66.52
2018-11-29T09:05:25.635Z,65.02
2018-11-29T09:07:55.318Z,65.24
2018-11-29T09:10:31.334Z,63.99
2018-11-29T09:12:54.931Z,64.32
2018-11-29T09:15:24.641Z,63.40
2018-11-29T09:17:54.352Z,63.24
2018-11-29T09:20:25.495Z,61.90
2018-11-29T09:22:55.201Z,62.33
2018-11-29T09:25:24.800Z,62.69
2018-11-29T09:27:54.384Z,62.87
2018-11-29T09:30:24.849Z,62.98
2018-11-29T09:32:55.355Z,62.07
2018-11-29T09:35:25.071Z,61.19
2018-11-29T09:37:57.636Z,60.72
2018-11-29T09:40:28.180Z,61.23
2018-11-29T09:42:57.779Z,60.85
2018-11-29T09:45:27.426Z,59.78
2018-11-29T09:47:57.599Z,59.95
2018-11-29T09:50:27.815Z,60.53
2018-11-29T09:52:57.522Z,59.17
2018-11-29T09:55:27.066Z,60.21
2018-11-29T09:57:56.617Z,59.40
2018-11-29T10:00:28.993Z,58.71
2018-11-29T10:03:11.622Z,59.03
2018-11-29T10:05:46.594Z,58.06
2018-11-29T10:08:17.949Z,57.36
2018-11-29T10:10:47.598Z,58.39
2018-11-29T10:13:17.214Z,57.69
2018-11-29T10:15:46.931Z,57.93
2018-11-29T10:18:16.722Z,56.56
2018-11-29T10:20:46.439Z,56.36
2018-11-29T10:23:16.351Z,57.76
2018-11-29T10:25:45.943Z,56.32
2018-11-29T10:28:17.084Z,56.53
2018-11-29T10:30:58.981Z,56.06
2018-11-29T10:33:28.546Z,55.23
2018-11-29T10:36:04.190Z,55.60
2018-11-29T10:38:33.842Z,55.20
2018-11-29T10:41:03.453Z,55.33
2018-11-29T10:43:33.062Z,56.29
2018-11-29T10:46:05.612Z,55.34
2018-11-29T10:48:35.456Z,55.33
2018-11-29T10:51:05.463Z,55.58
2018-11-29T10:53:37.679Z,55.27
2018-11-29T10:56:04.850Z,54.94
2018-11-29T10:58:35.356Z,54.65
2018-11-29T11:01:09.313Z,54.29
2018-11-29T11:03:39.943Z,54.81
2018-11-29T11:06:09.546Z,54.82
2018-11-29T11:08:39.166Z,54.16
2018-11-29T11:11:09.078Z,53.23
2018-11-29T11:13:39.275Z,53.46
2018-11-29T11:16:09.926Z,53.45
2018-11-29T11:18:42.755Z,53.29
2018-11-29T11:21:12.341Z,54.20
2018-11-29T11:23:41.994Z,54.42
2018-11-29T11:26:11.533Z,54.29
2018-11-29T11:28:41.154Z,54.50
2018-11-29T11:31:10.723Z,53.79
2018-11-29T11:33:40.324Z,54.02
2018-11-29T11:36:13.045Z,54.34
2018-11-29T11:38:42.628Z,53.52
2018-11-29T11:41:12.285Z,52.59
2018-11-29T11:43:42.114Z,54.69
2018-11-29T11:46:11.818Z,53.58
2018-11-29T11:48:41.549Z,53.00
2018-11-29T11:51:11.263Z,51.54
2018-11-29T11:53:40.871Z,52.64
2018-11-29T11:56:13.437Z,53.35
2018-11-29T11:58:43.046Z,53.15
2018-11-29T12:01:12.640Z,53.00
2018-11-29T12:03:42.825Z,52.11
2018-11-29T12:06:12.468Z,52.27
2018-11-29T12:08:45.152Z,51.47
2018-11-29T12:11:14.790Z,51.58
2018-11-29T12:13:44.374Z,52.28
2018-11-29T12:16:14.144Z,51.26
2018-11-29T12:18:43.671Z,51.25
2018-11-29T12:21:13.253Z,51.26
2018-11-29T12:23:42.867Z,49.79
2018-11-29T12:26:12.474Z,50.18
2018-11-29T12:28:42.100Z,50.15
2018-11-29T12:31:11.674Z,50.07
2018-11-29T12:33:41.170Z,49.16
2018-11-29T12:36:10.786Z,50.38
2018-11-29T12:38:40.417Z,50.49
2018-11-29T12:41:10.129Z,50.38
2018-11-29T12:43:39.839Z,50.37
2018-11-29T12:46:09.542Z,50.52
2018-11-29T12:48:39.050Z,49.69
2018-11-29T12:51:08.620Z,49.19
2018-11-29T12:53:38.183Z,49.39
2018-11-29T12:56:08.980Z,48.79
2018-11-29T12:58:38.588Z,49.28
2018-11-29T13:01:08.181Z,49.33
2018-11-29T13:03:37.803Z,49.32
2018-11-29T13:06:08.002Z,49.17
2018-11-29T13:08:37.529Z,49.33
2018-11-29T13:11:10.678Z,48.85
2018-11-29T13:13:36.842Z,50.57
2018-11-29T13:16:06.789Z,49.97
2018-11-29T13:18:36.379Z,49.86
2018-11-29T13:21:05.966Z,49.13
2018-11-29T13:23:35.523Z,50.68
2018-11-29T13:26:05.179Z,50.59
2018-11-29T13:28:34.810Z,50.41
2018-11-29T13:31:04.396Z,50.39
2018-11-29T13:33:33.994Z,49.89
2018-11-29T13:36:03.632Z,50.02
2018-11-29T13:38:33.192Z,50.61
2018-11-29T13:41:03.063Z,51.19
2018-11-29T13:43:32.692Z,50.87
2018-11-29T13:46:02.268Z,51.43
2018-11-29T13:48:31.822Z,51.10
2018-11-29T13:51:01.502Z,51.39
2018-11-29T13:53:31.176Z,51.80
2018-11-29T13:56:00.783Z,51.86
2018-11-29T13:58:30.336Z,52.07
2018-11-29T14:00:59.962Z,52.38
2018-11-29T14:03:29.593Z,52.41
2018-11-29T14:05:59.172Z,52.56
2018-11-29T14:08:28.875Z,52.69
2018-11-29T14:10:58.538Z,52.89
2018-11-29T14:13:28.089Z,53.11
2018-11-29T14:15:57.776Z,53.55
2018-11-29T14:18:27.316Z,54.31
2018-11-29T14:20:57.012Z,54.04
2018-11-29T14:23:26.816Z,54.54
2018-11-29T14:25:56.423Z,55.01
2018-11-29T14:28:25.955Z,56.09
2018-11-29T14:30:55.536Z,55.91
2018-11-29T14:33:25.198Z,56.32
2018-11-29T14:35:54.948Z,56.49
2018-11-29T14:38:24.559Z,57.01
2018-11-29T14:40:54.127Z,57.22
2018-11-29T14:43:23.778Z,57.13
2018-11-29T14:45:53.341Z,57.40
2018-11-29T14:48:23.381Z,57.82
2018-11-29T14:50:53.052Z,57.80
2018-11-29T14:53:22.624Z,57.56
2018-11-29T14:55:52.409Z,57.50
2018-11-29T14:58:22.111Z,57.16
2018-11-29T15:00:51.906Z,58.10
2018-11-29T15:03:23.349Z,58.67
2018-11-29T15:05:53.038Z,58.64
2018-11-29T15:08:22.670Z,58.64
2018-11-29T15:10:52.393Z,58.50
2018-11-29T15:13:22.104Z,58.83
2018-11-29T15:15:51.945Z,58.69
2018-11-29T15:18:21.787Z,58.39
2018-11-29T15:20:51.534Z,58.75
2018-11-29T15:23:21.825Z,58.36
2018-11-29T15:25:51.562Z,58.65
2018-11-29T15:28:21.388Z,58.88
2018-11-29T15:30:51.084Z,58.62
2018-11-29T15:33:20.943Z,59.03
2018-11-29T15:35:50.823Z,58.91
2018-11-29T15:38:20.618Z,59.02
2018-11-29T15:40:50.374Z,59.09
2018-11-29T15:43:20.066Z,58.64
2018-11-29T15:45:49.852Z,59.05
2018-11-29T15:48:19.516Z,59.05
2018-11-29T15:50:49.158Z,58.92
2018-11-29T15:53:19.260Z,59.03
2018-11-29T15:55:48.883Z,59.57
2018-11-29T15:58:18.589Z,60.09
2018-11-29T16:00:48.226Z,59.53
2018-11-29T16:03:18.116Z,60.08
2018-11-29T16:05:48.638Z,60.38
2018-11-29T16:08:18.169Z,60.41
2018-11-29T16:10:47.959Z,60.76
2018-11-29T16:13:17.743Z,60.75
2018-11-29T16:15:47.368Z,60.68
2018-11-29T16:18:17.282Z,60.66
2018-11-29T16:20:47.446Z,61.16
2018-11-29T16:23:17.306Z,60.90
2018-11-29T16:25:47.021Z,61.25
2018-11-29T16:28:16.902Z,61.52
2018-11-29T16:30:49.621Z,61.03
2018-11-29T16:33:30.203Z,61.37
2018-11-29T16:36:00.163Z,61.03
2018-11-29T16:38:29.793Z,61.44
2018-11-29T16:40:59.498Z,61.27
2018-11-29T16:43:29.308Z,61.34
2018-11-29T16:45:59.015Z,61.33
2018-11-29T16:48:28.646Z,61.68
2018-11-29T16:50:58.643Z,61.14
2018-11-29T16:53:28.352Z,61.86
2018-11-29T16:55:58.060Z,61.82
2018-11-29T16:58:30.016Z,61.76
2018-11-29T17:00:59.667Z,61.86
2018-11-29T17:03:29.326Z,61.70
2018-11-29T17:05:59.023Z,61.87
2018-11-29T17:08:28.966Z,62.24
2018-11-29T17:10:58.758Z,61.69
2018-11-29T17:13:28.593Z,62.33
2018-11-29T17:15:58.348Z,62.63
2018-11-29T17:18:28.090Z,62.47
2018-11-29T17:20:57.905Z,62.73
2018-11-29T17:23:27.711Z,62.79
2018-11-29T17:25:57.507Z,62.54
2018-11-29T17:28:27.443Z,63.01
2018-11-29T17:30:57.254Z,63.64
2018-11-29T17:33:27.262Z,63.20
2018-11-29T17:35:57.066Z,63.14
2018-11-29T17:38:26.736Z,63.75
2018-11-29T17:40:56.428Z,64.00
2018-11-29T17:43:26.016Z,63.95
2018-11-29T17:45:55.777Z,64.42
2018-11-29T17:48:25.407Z,64.69
2018-11-29T17:50:55.073Z,64.33
2018-11-29T17:53:24.890Z,64.81
2018-11-29T17:55:54.768Z,64.89
2018-11-29T17:58:24.565Z,65.08
2018-11-29T18:00:54.327Z,64.82
2018-11-29T18:03:24.366Z,65.01
2018-11-29T18:05:54.076Z,65.17
2018-11-29T18:08:24.091Z,65.27
2018-11-29T18:10:57.411Z,65.48
2018-11-29T18:13:31.671Z,65.44
2018-11-29T18:16:01.499Z,66.16
2018-11-29T18:18:31.591Z,65.82
2018-11-29T18:21:01.431Z,65.92
2018-11-29T18:23:31.459Z,65.77
2018-11-29T18:26:01.201Z,65.69
2018-11-29T18:28:31.020Z,65.89
2018-11-29T18:31:01.851Z,65.66
2018-11-29T18:33:31.703Z,66.11
2018-11-29T18:36:01.456Z,66.16
2018-11-29T18:38:31.338Z,65.66
2018-11-29T18:41:01.796Z,65.83
2018-11-29T18:43:31.550Z,65.85
2018-11-29T18:46:05.462Z,65.77
2018-11-29T18:48:35.350Z,66.10
2018-11-29T18:51:06.020Z,66.20
2018-11-29T18:53:36.620Z,66.57
2018-11-29T18:56:10.601Z,66.42
2018-11-29T18:58:41.505Z,66.08
2018-11-29T19:01:14.305Z,66.18
2018-11-29T19:03:45.145Z,65.51
2018-11-29T19:06:18.152Z,66.34
2018-11-29T19:08:55.692Z,66.12
2018-11-29T19:11:28.457Z,66.12
2018-11-29T19:13:58.847Z,65.97
2018-11-29T19:16:33.222Z,65.67
2018-11-29T19:19:03.163Z,66.28
2018-11-29T19:21:33.570Z,66.42
2018-11-29T19:24:03.569Z,66.44
2018-11-29T19:26:34.502Z,66.10
2018-11-29T19:29:07.475Z,66.00
2018-11-29T19:31:37.251Z,65.76
2018-11-29T19:34:07.713Z,65.50
2018-11-29T19:36:39.290Z,65.92
2018-11-29T19:39:10.003Z,66.04
2018-11-29T19:41:40.123Z,66.62
2018-11-29T19:44:11.476Z,66.53
2018-11-29T19:46:41.202Z,66.45
2018-11-29T19:49:11.210Z,66.78
2018-11-29T19:51:41.165Z,66.70
2018-11-29T19:54:14.647Z,67.26
2018-11-29T19:56:45.951Z,66.22
2018-11-29T19:59:15.853Z,66.19
2018-11-29T20:01:46.487Z,66.24
2018-11-29T20:04:17.008Z,66.33
2018-11-29T20:06:47.726Z,66.60
2018-11-29T20:09:17.596Z,66.73
2018-11-29T20:11:51.823Z,66.69
2018-11-29T20:14:21.797Z,66.57
2018-11-29T20:16:56.420Z,66.96
2018-11-29T20:19:27.753Z,67.23
2018-11-29T20:21:57.707Z,67.42
2018-11-29T20:24:28.285Z,67.41
2018-11-29T20:27:01.181Z,67.47
2018-11-29T20:29:31.198Z,67.65
2018-11-29T20:32:03.227Z,67.79
2018-11-29T20:34:34.127Z,67.49
2018-11-29T20:37:04.852Z,67.94
2018-11-29T20:39:35.560Z,67.68
2018-11-29T20:42:06.310Z,68.01
2018-11-29T20:44:36.810Z,68.44
2018-11-29T20:47:10.762Z,68.14
2018-11-29T20:49:40.421Z,68.00
2018-11-29T20:52:10.139Z,68.18
2018-11-29T20:54:39.835Z,68.13
2018-11-29T20:57:09.344Z,68.34
2018-11-29T20:59:42.092Z,68.40
2018-11-29T21:02:11.746Z,68.92
2018-11-29T21:04:41.332Z,69.03
2018-11-29T21:07:11.051Z,69.22
2018-11-29T21:09:40.728Z,69.17
2018-11-29T21:12:10.460Z,69.17
2018-11-29T21:14:40.178Z,69.03
2018-11-29T21:17:09.848Z,69.41
2018-11-29T21:19:39.488Z,69.42
2018-11-29T21:22:09.187Z,69.65
2018-11-29T21:24:39.752Z,69.96
2018-11-29T21:27:09.941Z,69.64
2018-11-29T21:29:39.951Z,69.67
2018-11-29T21:32:10.066Z,70.18
2018-11-29T21:34:39.842Z,70.30
2018-11-29T21:37:09.426Z,70.17
2018-11-29T21:43:57.543Z,70.41
2018-11-29T21:46:27.569Z,70.52
2018-11-29T21:48:57.270Z,70.21
2018-11-29T21:51:27.283Z,70.82
2018-11-29T21:53:57.192Z,70.59
2018-11-29T21:56:26.945Z,71.09
2018-11-29T21:58:56.802Z,71.16
2018-11-29T22:01:26.977Z,71.00
2018-11-29T22:03:57.057Z,71.33
2018-11-29T22:06:27.063Z,71.66
2018-11-29T22:08:56.878Z,71.80
2018-11-29T22:11:27.312Z,71.74
2018-11-29T22:13:57.528Z,72.17
2018-11-29T22:16:27.324Z,72.04
2018-11-29T22:18:57.159Z,72.69
2018-11-29T22:21:26.956Z,72.60
2018-11-29T22:23:56.947Z,72.67
2018-11-29T22:26:27.092Z,72.89
2018-11-29T22:28:56.831Z,72.96
2018-11-29T22:31:26.599Z,73.61
2018-11-29T22:33:56.586Z,74.07
2018-11-29T22:36:26.296Z,74.16
2018-11-29T22:38:56.137Z,74.16
2018-11-29T22:41:25.703Z,74.35
2018-11-29T22:43:55.390Z,74.61
2018-11-29T22:46:25.200Z,74.65
2018-11-29T22:48:54.890Z,74.57
2018-11-29T22:51:24.681Z,74.87
2018-11-29T22:53:54.935Z,74.55
2018-11-29T22:56:24.707Z,74.84
2018-11-29T22:58:54.344Z,75.29
2018-11-29T23:01:28.974Z,75.35
2018-11-29T23:03:58.759Z,75.58
2018-11-29T23:06:28.522Z,75.78
2018-11-29T23:08:58.167Z,75.67
2018-11-29T23:11:28.361Z,75.10
2018-11-29T23:13:58.300Z,75.49
2018-11-29T23:16:27.938Z,75.46
2018-11-29T23:18:57.713Z,75.08
2018-11-29T23:21:28.864Z,75.13
2018-11-29T23:23:58.523Z,75.10
2018-11-29T23:26:28.334Z,74.91
2018-11-29T23:28:58.464Z,75.30
2018-11-29T23:31:28.208Z,75.83
2018-11-29T23:33:57.811Z,75.94
2018-11-29T23:36:27.474Z,75.99
2018-11-29T23:38:57.532Z,75.39
2018-11-29T23:41:27.342Z,75.50
2018-11-29T23:43:57.051Z,75.89
2018-11-29T23:46:26.644Z,75.92
2018-11-29T23:48:56.232Z,76.01
2018-11-29T23:51:25.966Z,76.15
2018-11-29T23:53:55.672Z,76.27
2018-11-29T23:56:25.275Z,76.43
2018-11-29T23:58:54.901Z,76.95
